sensor_id;sensor_type;location;lat;lon;timestamp;P1;durP1;ratioP1;P2;durP2;ratioP2
6205;SDS011;3136;48.788;9.772;2024-01-30T00:00:11;16.37;;;10.60;;
6205;SDS011;3136;48.788;9.772;2024-01-30T00:02:37;22.03;;;10.33;;
6205;SDS011;3136;48.788;9.772;2024-01-30T00:05:02;18.73;;;11.03;;
6205;SDS011;3136;48.788;9.772;2024-01-30T00:07:28;19.90;;;12.07;;
6205;SDS011;3136;48.788;9.772;2024-01-30T00:09:54;23.10;;;12.40;;
6205;SDS011;3136;48.788;9.772;2024-01-30T00:12:20;22.87;;;11.93;;
6205;SDS011;3136;48.788;9.772;2024-01-30T00:14:46;18.83;;;11.30;;
6205;SDS011;3136;48.788;9.772;2024-01-30T00:17:11;18.77;;;11.10;;
6205;SDS011;3136;48.788;9.772;2024-01-30T00:19:37;19.83;;;11.40;;
6205;SDS011;3136;48.788;9.772;2024-01-30T00:22:02;17.83;;;10.77;;
6205;SDS011;3136;48.788;9.772;2024-01-30T00:24:28;18.53;;;11.53;;
6205;SDS011;3136;48.788;9.772;2024-01-30T00:26:54;19.90;;;11.67;;
6205;SDS011;3136;48.788;9.772;2024-01-30T00:29:19;21.17;;;11.00;;
6205;SDS011;3136;48.788;9.772;2024-01-30T00:31:46;18.37;;;10.87;;
6205;SDS011;3136;48.788;9.772;2024-01-30T00:34:12;18.47;;;11.13;;
6205;SDS011;3136;48.788;9.772;2024-01-30T00:36:37;18.80;;;10.97;;
6205;SDS011;3136;48.788;9.772;2024-01-30T00:39:03;19.20;;;10.70;;
6205;SDS011;3136;48.788;9.772;2024-01-30T00:41:33;21.40;;;10.67;;
6205;SDS011;3136;48.788;9.772;2024-01-30T00:43:59;18.40;;;11.17;;
6205;SDS011;3136;48.788;9.772;2024-01-30T00:46:25;22.20;;;10.73;;
6205;SDS011;3136;48.788;9.772;2024-01-30T00:48:50;19.97;;;11.30;;
6205;SDS011;3136;48.788;9.772;2024-01-30T00:51:16;17.17;;;10.30;;
6205;SDS011;3136;48.788;9.772;2024-01-30T00:53:41;19.53;;;11.03;;
6205;SDS011;3136;48.788;9.772;2024-01-30T00:56:07;16.20;;;10.53;;
6205;SDS011;3136;48.788;9.772;2024-01-30T00:58:33;17.43;;;10.80;;
6205;SDS011;3136;48.788;9.772;2024-01-30T01:00:59;16.73;;;10.80;;
6205;SDS011;3136;48.788;9.772;2024-01-30T01:03:25;17.20;;;10.83;;
6205;SDS011;3136;48.788;9.772;2024-01-30T01:05:50;17.87;;;10.47;;
6205;SDS011;3136;48.788;9.772;2024-01-30T01:08:16;20.43;;;11.30;;
6205;SDS011;3136;48.788;9.772;2024-01-30T01:10:41;17.00;;;10.50;;
6205;SDS011;3136;48.788;9.772;2024-01-30T01:13:07;17.23;;;10.50;;
6205;SDS011;3136;48.788;9.772;2024-01-30T01:15:32;18.87;;;10.50;;
6205;SDS011;3136;48.788;9.772;2024-01-30T01:17:58;16.17;;;10.50;;
6205;SDS011;3136;48.788;9.772;2024-01-30T01:20:23;20.23;;;10.70;;
6205;SDS011;3136;48.788;9.772;2024-01-30T01:22:49;18.90;;;10.93;;
6205;SDS011;3136;48.788;9.772;2024-01-30T01:25:15;19.87;;;10.90;;
6205;SDS011;3136;48.788;9.772;2024-01-30T01:27:40;18.77;;;10.83;;
6205;SDS011;3136;48.788;9.772;2024-01-30T01:30:08;17.97;;;10.80;;
6205;SDS011;3136;48.788;9.772;2024-01-30T01:32:35;16.37;;;10.80;;
6205;SDS011;3136;48.788;9.772;2024-01-30T01:35:01;18.53;;;10.93;;
6205;SDS011;3136;48.788;9.772;2024-01-30T01:37:27;17.27;;;11.17;;
6205;SDS011;3136;48.788;9.772;2024-01-30T01:39:53;16.90;;;10.40;;
6205;SDS011;3136;48.788;9.772;2024-01-30T01:42:18;17.77;;;10.57;;
6205;SDS011;3136;48.788;9.772;2024-01-30T01:44:44;17.90;;;10.60;;
6205;SDS011;3136;48.788;9.772;2024-01-30T01:47:09;17.13;;;10.63;;
6205;SDS011;3136;48.788;9.772;2024-01-30T01:49:35;18.53;;;10.13;;
6205;SDS011;3136;48.788;9.772;2024-01-30T01:52:01;19.67;;;10.73;;
6205;SDS011;3136;48.788;9.772;2024-01-30T01:54:26;18.83;;;10.50;;
6205;SDS011;3136;48.788;9.772;2024-01-30T01:56:54;16.57;;;9.30;;
6205;SDS011;3136;48.788;9.772;2024-01-30T01:59:20;17.80;;;10.63;;
6205;SDS011;3136;48.788;9.772;2024-01-30T02:01:47;17.13;;;9.97;;
6205;SDS011;3136;48.788;9.772;2024-01-30T02:04:14;20.23;;;10.27;;
6205;SDS011;3136;48.788;9.772;2024-01-30T02:06:40;16.27;;;10.20;;
6205;SDS011;3136;48.788;9.772;2024-01-30T02:09:06;20.73;;;11.50;;
6205;SDS011;3136;48.788;9.772;2024-01-30T02:11:34;21.03;;;10.50;;
6205;SDS011;3136;48.788;9.772;2024-01-30T02:14:03;18.63;;;11.13;;
6205;SDS011;3136;48.788;9.772;2024-01-30T02:16:29;17.70;;;10.03;;
6205;SDS011;3136;48.788;9.772;2024-01-30T02:18:55;16.00;;;9.60;;
6205;SDS011;3136;48.788;9.772;2024-01-30T02:21:20;16.03;;;10.03;;
6205;SDS011;3136;48.788;9.772;2024-01-30T02:23:46;17.03;;;10.10;;
6205;SDS011;3136;48.788;9.772;2024-01-30T02:26:13;16.10;;;10.20;;
6205;SDS011;3136;48.788;9.772;2024-01-30T02:28:39;17.83;;;10.20;;
6205;SDS011;3136;48.788;9.772;2024-01-30T02:31:04;18.10;;;10.33;;
6205;SDS011;3136;48.788;9.772;2024-01-30T02:33:30;16.03;;;9.70;;
6205;SDS011;3136;48.788;9.772;2024-01-30T02:35:56;18.73;;;9.40;;
6205;SDS011;3136;48.788;9.772;2024-01-30T02:38:21;19.90;;;10.33;;
6205;SDS011;3136;48.788;9.772;2024-01-30T02:40:48;16.37;;;9.20;;
6205;SDS011;3136;48.788;9.772;2024-01-30T02:43:14;16.60;;;10.20;;
6205;SDS011;3136;48.788;9.772;2024-01-30T02:45:41;17.53;;;10.63;;
6205;SDS011;3136;48.788;9.772;2024-01-30T02:48:06;16.13;;;9.80;;
6205;SDS011;3136;48.788;9.772;2024-01-30T02:50:32;17.53;;;10.70;;
6205;SDS011;3136;48.788;9.772;2024-01-30T02:52:57;15.93;;;9.73;;
6205;SDS011;3136;48.788;9.772;2024-01-30T02:55:23;17.07;;;9.60;;
6205;SDS011;3136;48.788;9.772;2024-01-30T02:57:48;16.30;;;9.50;;
6205;SDS011;3136;48.788;9.772;2024-01-30T03:00:14;16.90;;;10.00;;
6205;SDS011;3136;48.788;9.772;2024-01-30T03:02:40;15.47;;;9.47;;
6205;SDS011;3136;48.788;9.772;2024-01-30T03:05:05;16.33;;;10.30;;
6205;SDS011;3136;48.788;9.772;2024-01-30T03:07:32;15.33;;;9.43;;
6205;SDS011;3136;48.788;9.772;2024-01-30T03:09:58;19.63;;;10.03;;
6205;SDS011;3136;48.788;9.772;2024-01-30T03:12:23;16.13;;;9.97;;
6205;SDS011;3136;48.788;9.772;2024-01-30T03:14:49;14.43;;;9.20;;
6205;SDS011;3136;48.788;9.772;2024-01-30T03:17:15;15.67;;;9.37;;
6205;SDS011;3136;48.788;9.772;2024-01-30T03:19:40;18.67;;;9.73;;
6205;SDS011;3136;48.788;9.772;2024-01-30T03:22:06;15.30;;;8.93;;
6205;SDS011;3136;48.788;9.772;2024-01-30T03:24:32;17.63;;;9.90;;
6205;SDS011;3136;48.788;9.772;2024-01-30T03:26:58;15.33;;;9.23;;
6205;SDS011;3136;48.788;9.772;2024-01-30T03:29:23;15.70;;;9.30;;
6205;SDS011;3136;48.788;9.772;2024-01-30T03:31:49;14.67;;;9.27;;
6205;SDS011;3136;48.788;9.772;2024-01-30T03:34:14;17.77;;;9.67;;
6205;SDS011;3136;48.788;9.772;2024-01-30T03:36:40;15.00;;;9.00;;
6205;SDS011;3136;48.788;9.772;2024-01-30T03:39:05;15.67;;;9.40;;
6205;SDS011;3136;48.788;9.772;2024-01-30T03:41:31;15.53;;;9.40;;
6205;SDS011;3136;48.788;9.772;2024-01-30T03:43:57;17.57;;;9.60;;
6205;SDS011;3136;48.788;9.772;2024-01-30T03:46:22;15.83;;;10.57;;
6205;SDS011;3136;48.788;9.772;2024-01-30T03:48:48;16.13;;;9.30;;
6205;SDS011;3136;48.788;9.772;2024-01-30T03:51:14;15.93;;;10.47;;
6205;SDS011;3136;48.788;9.772;2024-01-30T03:53:43;15.33;;;9.53;;
6205;SDS011;3136;48.788;9.772;2024-01-30T03:56:10;16.93;;;10.03;;
6205;SDS011;3136;48.788;9.772;2024-01-30T03:58:35;21.47;;;10.63;;
6205;SDS011;3136;48.788;9.772;2024-01-30T04:01:01;15.13;;;9.23;;
6205;SDS011;3136;48.788;9.772;2024-01-30T04:03:27;16.47;;;9.53;;
6205;SDS011;3136;48.788;9.772;2024-01-30T04:05:52;15.63;;;9.60;;
6205;SDS011;3136;48.788;9.772;2024-01-30T04:08:18;16.07;;;9.33;;
6205;SDS011;3136;48.788;9.772;2024-01-30T04:10:44;17.23;;;10.30;;
6205;SDS011;3136;48.788;9.772;2024-01-30T04:13:09;15.20;;;9.53;;
6205;SDS011;3136;48.788;9.772;2024-01-30T04:15:35;20.03;;;10.40;;
6205;SDS011;3136;48.788;9.772;2024-01-30T04:18:00;19.00;;;10.10;;
6205;SDS011;3136;48.788;9.772;2024-01-30T04:20:26;19.90;;;11.00;;
6205;SDS011;3136;48.788;9.772;2024-01-30T04:22:52;17.90;;;10.20;;
6205;SDS011;3136;48.788;9.772;2024-01-30T04:25:17;18.47;;;10.63;;
6205;SDS011;3136;48.788;9.772;2024-01-30T04:27:43;19.17;;;11.03;;
6205;SDS011;3136;48.788;9.772;2024-01-30T04:30:09;19.30;;;10.77;;
6205;SDS011;3136;48.788;9.772;2024-01-30T04:32:35;17.30;;;10.50;;
6205;SDS011;3136;48.788;9.772;2024-01-30T04:35:02;18.30;;;10.63;;
6205;SDS011;3136;48.788;9.772;2024-01-30T04:37:27;18.83;;;10.73;;
6205;SDS011;3136;48.788;9.772;2024-01-30T04:39:53;16.37;;;9.77;;
6205;SDS011;3136;48.788;9.772;2024-01-30T04:42:19;18.90;;;10.23;;
6205;SDS011;3136;48.788;9.772;2024-01-30T04:44:44;19.17;;;11.60;;
6205;SDS011;3136;48.788;9.772;2024-01-30T04:47:10;19.17;;;10.03;;
6205;SDS011;3136;48.788;9.772;2024-01-30T04:49:37;18.37;;;10.27;;
6205;SDS011;3136;48.788;9.772;2024-01-30T04:52:04;17.97;;;10.33;;
6205;SDS011;3136;48.788;9.772;2024-01-30T04:54:31;18.13;;;10.20;;
6205;SDS011;3136;48.788;9.772;2024-01-30T04:56:56;16.53;;;9.97;;
6205;SDS011;3136;48.788;9.772;2024-01-30T04:59:22;16.60;;;10.50;;
6205;SDS011;3136;48.788;9.772;2024-01-30T05:01:47;17.47;;;9.53;;
6205;SDS011;3136;48.788;9.772;2024-01-30T05:04:13;17.67;;;10.20;;
6205;SDS011;3136;48.788;9.772;2024-01-30T05:06:39;16.73;;;10.23;;
6205;SDS011;3136;48.788;9.772;2024-01-30T05:09:04;15.63;;;9.87;;
6205;SDS011;3136;48.788;9.772;2024-01-30T05:11:30;15.67;;;10.20;;
6205;SDS011;3136;48.788;9.772;2024-01-30T05:13:55;18.33;;;9.70;;
6205;SDS011;3136;48.788;9.772;2024-01-30T05:16:21;18.23;;;9.97;;
6205;SDS011;3136;48.788;9.772;2024-01-30T05:18:47;16.07;;;10.07;;
6205;SDS011;3136;48.788;9.772;2024-01-30T05:21:13;13.83;;;9.33;;
6205;SDS011;3136;48.788;9.772;2024-01-30T05:23:38;14.70;;;10.13;;
6205;SDS011;3136;48.788;9.772;2024-01-30T05:26:05;15.90;;;9.57;;
6205;SDS011;3136;48.788;9.772;2024-01-30T05:28:30;16.87;;;9.80;;
6205;SDS011;3136;48.788;9.772;2024-01-30T05:30:56;16.07;;;9.50;;
6205;SDS011;3136;48.788;9.772;2024-01-30T05:33:22;18.03;;;10.73;;
6205;SDS011;3136;48.788;9.772;2024-01-30T05:35:47;15.40;;;10.20;;
6205;SDS011;3136;48.788;9.772;2024-01-30T05:38:13;15.70;;;9.97;;
6205;SDS011;3136;48.788;9.772;2024-01-30T05:40:40;15.67;;;9.50;;
6205;SDS011;3136;48.788;9.772;2024-01-30T05:43:06;15.63;;;9.47;;
6205;SDS011;3136;48.788;9.772;2024-01-30T05:45:32;14.77;;;10.07;;
6205;SDS011;3136;48.788;9.772;2024-01-30T05:47:59;17.63;;;10.27;;
6205;SDS011;3136;48.788;9.772;2024-01-30T05:50:24;20.60;;;12.30;;
6205;SDS011;3136;48.788;9.772;2024-01-30T05:52:51;21.03;;;12.00;;
6205;SDS011;3136;48.788;9.772;2024-01-30T05:55:16;17.07;;;10.57;;
6205;SDS011;3136;48.788;9.772;2024-01-30T05:57:42;15.30;;;9.50;;
6205;SDS011;3136;48.788;9.772;2024-01-30T06:00:08;17.87;;;10.03;;
6205;SDS011;3136;48.788;9.772;2024-01-30T06:02:34;16.67;;;9.43;;
6205;SDS011;3136;48.788;9.772;2024-01-30T06:04:59;18.43;;;9.83;;
6205;SDS011;3136;48.788;9.772;2024-01-30T06:07:25;19.97;;;10.30;;
6205;SDS011;3136;48.788;9.772;2024-01-30T06:09:50;16.23;;;10.17;;
6205;SDS011;3136;48.788;9.772;2024-01-30T06:12:16;17.87;;;10.13;;
6205;SDS011;3136;48.788;9.772;2024-01-30T06:14:41;16.47;;;10.20;;
6205;SDS011;3136;48.788;9.772;2024-01-30T06:17:07;17.30;;;10.10;;
6205;SDS011;3136;48.788;9.772;2024-01-30T06:19:37;17.53;;;9.53;;
6205;SDS011;3136;48.788;9.772;2024-01-30T06:22:03;17.47;;;10.53;;
6205;SDS011;3136;48.788;9.772;2024-01-30T06:24:29;15.87;;;10.23;;
6205;SDS011;3136;48.788;9.772;2024-01-30T06:26:55;18.73;;;10.80;;
6205;SDS011;3136;48.788;9.772;2024-01-30T06:29:20;16.83;;;10.27;;
6205;SDS011;3136;48.788;9.772;2024-01-30T06:31:46;26.03;;;15.27;;
6205;SDS011;3136;48.788;9.772;2024-01-30T06:34:12;25.53;;;14.20;;
6205;SDS011;3136;48.788;9.772;2024-01-30T06:36:37;23.80;;;13.80;;
6205;SDS011;3136;48.788;9.772;2024-01-30T06:39:03;20.83;;;11.97;;
6205;SDS011;3136;48.788;9.772;2024-01-30T06:41:29;18.27;;;10.90;;
6205;SDS011;3136;48.788;9.772;2024-01-30T06:43:55;17.80;;;10.67;;
6205;SDS011;3136;48.788;9.772;2024-01-30T06:46:21;19.57;;;11.27;;
6205;SDS011;3136;48.788;9.772;2024-01-30T06:48:47;16.90;;;10.90;;
6205;SDS011;3136;48.788;9.772;2024-01-30T06:51:12;18.67;;;10.27;;
6205;SDS011;3136;48.788;9.772;2024-01-30T06:53:38;21.40;;;10.80;;
6205;SDS011;3136;48.788;9.772;2024-01-30T06:56:04;19.43;;;10.90;;
6205;SDS011;3136;48.788;9.772;2024-01-30T06:58:30;19.47;;;11.87;;
6205;SDS011;3136;48.788;9.772;2024-01-30T07:00:56;18.83;;;10.87;;
6205;SDS011;3136;48.788;9.772;2024-01-30T07:03:21;19.80;;;12.20;;
6205;SDS011;3136;48.788;9.772;2024-01-30T07:05:47;21.47;;;12.47;;
6205;SDS011;3136;48.788;9.772;2024-01-30T07:08:12;22.77;;;13.57;;
6205;SDS011;3136;48.788;9.772;2024-01-30T07:10:38;19.53;;;12.70;;
6205;SDS011;3136;48.788;9.772;2024-01-30T07:13:04;20.47;;;12.00;;
6205;SDS011;3136;48.788;9.772;2024-01-30T07:15:30;16.63;;;10.67;;
6205;SDS011;3136;48.788;9.772;2024-01-30T07:17:56;17.00;;;11.00;;
6205;SDS011;3136;48.788;9.772;2024-01-30T07:20:22;15.57;;;10.50;;
6205;SDS011;3136;48.788;9.772;2024-01-30T07:22:47;17.40;;;10.10;;
6205;SDS011;3136;48.788;9.772;2024-01-30T07:25:13;16.97;;;10.23;;
6205;SDS011;3136;48.788;9.772;2024-01-30T07:27:39;19.30;;;10.70;;
6205;SDS011;3136;48.788;9.772;2024-01-30T07:30:04;17.63;;;11.50;;
6205;SDS011;3136;48.788;9.772;2024-01-30T07:32:30;16.83;;;10.97;;
6205;SDS011;3136;48.788;9.772;2024-01-30T07:34:56;16.27;;;9.63;;
6205;SDS011;3136;48.788;9.772;2024-01-30T07:37:22;17.63;;;10.90;;
6205;SDS011;3136;48.788;9.772;2024-01-30T07:39:48;16.60;;;10.53;;
6205;SDS011;3136;48.788;9.772;2024-01-30T07:42:13;15.43;;;9.93;;
6205;SDS011;3136;48.788;9.772;2024-01-30T07:44:39;20.07;;;11.27;;
6205;SDS011;3136;48.788;9.772;2024-01-30T07:47:04;16.83;;;9.73;;
6205;SDS011;3136;48.788;9.772;2024-01-30T07:49:30;14.27;;;9.80;;
6205;SDS011;3136;48.788;9.772;2024-01-30T07:51:59;16.07;;;10.07;;
6205;SDS011;3136;48.788;9.772;2024-01-30T07:54:25;16.83;;;9.60;;
6205;SDS011;3136;48.788;9.772;2024-01-30T07:56:50;13.93;;;9.87;;
6205;SDS011;3136;48.788;9.772;2024-01-30T07:59:16;19.77;;;10.37;;
6205;SDS011;3136;48.788;9.772;2024-01-30T08:01:42;16.40;;;10.57;;
6205;SDS011;3136;48.788;9.772;2024-01-30T08:04:07;17.57;;;10.83;;
6205;SDS011;3136;48.788;9.772;2024-01-30T08:06:33;14.00;;;9.43;;
6205;SDS011;3136;48.788;9.772;2024-01-30T08:08:58;18.53;;;10.37;;
6205;SDS011;3136;48.788;9.772;2024-01-30T08:11:24;13.57;;;9.50;;
6205;SDS011;3136;48.788;9.772;2024-01-30T08:13:52;18.03;;;9.43;;
6205;SDS011;3136;48.788;9.772;2024-01-30T08:16:17;16.80;;;10.17;;
6205;SDS011;3136;48.788;9.772;2024-01-30T08:18:43;18.30;;;11.10;;
6205;SDS011;3136;48.788;9.772;2024-01-30T08:21:10;17.50;;;10.77;;
6205;SDS011;3136;48.788;9.772;2024-01-30T08:23:37;16.10;;;10.13;;
6205;SDS011;3136;48.788;9.772;2024-01-30T08:26:03;17.27;;;10.83;;
6205;SDS011;3136;48.788;9.772;2024-01-30T08:28:29;15.87;;;10.10;;
6205;SDS011;3136;48.788;9.772;2024-01-30T08:30:55;16.67;;;10.70;;
6205;SDS011;3136;48.788;9.772;2024-01-30T08:33:20;18.80;;;11.00;;
6205;SDS011;3136;48.788;9.772;2024-01-30T08:35:46;17.10;;;10.67;;
6205;SDS011;3136;48.788;9.772;2024-01-30T08:38:11;15.43;;;10.60;;
6205;SDS011;3136;48.788;9.772;2024-01-30T08:40:37;14.07;;;9.77;;
6205;SDS011;3136;48.788;9.772;2024-01-30T08:43:03;17.03;;;11.27;;
6205;SDS011;3136;48.788;9.772;2024-01-30T08:45:29;16.20;;;10.97;;
6205;SDS011;3136;48.788;9.772;2024-01-30T08:47:55;15.80;;;10.70;;
6205;SDS011;3136;48.788;9.772;2024-01-30T08:50:21;17.77;;;10.73;;
6205;SDS011;3136;48.788;9.772;2024-01-30T08:52:47;17.53;;;11.40;;
6205;SDS011;3136;48.788;9.772;2024-01-30T08:55:12;17.33;;;11.90;;
6205;SDS011;3136;48.788;9.772;2024-01-30T08:57:38;18.80;;;12.40;;
6205;SDS011;3136;48.788;9.772;2024-01-30T09:00:03;17.20;;;11.57;;
6205;SDS011;3136;48.788;9.772;2024-01-30T09:02:34;16.17;;;11.17;;
6205;SDS011;3136;48.788;9.772;2024-01-30T09:04:59;17.80;;;11.13;;
6205;SDS011;3136;48.788;9.772;2024-01-30T09:07:25;20.87;;;12.57;;
6205;SDS011;3136;48.788;9.772;2024-01-30T09:09:50;15.47;;;11.37;;
6205;SDS011;3136;48.788;9.772;2024-01-30T09:12:16;15.97;;;11.37;;
6205;SDS011;3136;48.788;9.772;2024-01-30T09:14:41;16.20;;;10.97;;
6205;SDS011;3136;48.788;9.772;2024-01-30T09:17:07;19.10;;;11.30;;
6205;SDS011;3136;48.788;9.772;2024-01-30T09:19:33;15.60;;;10.83;;
6205;SDS011;3136;48.788;9.772;2024-01-30T09:21:58;19.13;;;11.73;;
6205;SDS011;3136;48.788;9.772;2024-01-30T09:24:25;17.40;;;11.83;;
6205;SDS011;3136;48.788;9.772;2024-01-30T09:26:51;16.23;;;11.83;;
6205;SDS011;3136;48.788;9.772;2024-01-30T09:29:17;17.10;;;11.10;;
6205;SDS011;3136;48.788;9.772;2024-01-30T09:31:43;15.10;;;10.93;;
6205;SDS011;3136;48.788;9.772;2024-01-30T09:34:10;17.40;;;11.23;;
6205;SDS011;3136;48.788;9.772;2024-01-30T09:36:35;17.57;;;11.50;;
6205;SDS011;3136;48.788;9.772;2024-01-30T09:39:01;18.37;;;11.77;;
6205;SDS011;3136;48.788;9.772;2024-01-30T09:41:27;17.77;;;10.73;;
6205;SDS011;3136;48.788;9.772;2024-01-30T09:43:53;16.90;;;11.17;;
6205;SDS011;3136;48.788;9.772;2024-01-30T09:46:22;16.47;;;10.83;;
6205;SDS011;3136;48.788;9.772;2024-01-30T09:48:55;15.83;;;10.30;;
6205;SDS011;3136;48.788;9.772;2024-01-30T09:51:22;16.20;;;10.23;;
6205;SDS011;3136;48.788;9.772;2024-01-30T09:53:48;18.20;;;9.87;;
6205;SDS011;3136;48.788;9.772;2024-01-30T09:56:14;17.47;;;11.40;;
6205;SDS011;3136;48.788;9.772;2024-01-30T09:58:41;13.97;;;9.77;;
6205;SDS011;3136;48.788;9.772;2024-01-30T10:01:07;16.37;;;9.30;;
6205;SDS011;3136;48.788;9.772;2024-01-30T10:03:32;20.83;;;11.00;;
6205;SDS011;3136;48.788;9.772;2024-01-30T10:05:59;15.57;;;10.03;;
6205;SDS011;3136;48.788;9.772;2024-01-30T10:08:26;15.90;;;10.90;;
6205;SDS011;3136;48.788;9.772;2024-01-30T10:10:51;15.20;;;10.27;;
6205;SDS011;3136;48.788;9.772;2024-01-30T10:13:17;17.27;;;10.73;;
6205;SDS011;3136;48.788;9.772;2024-01-30T10:15:43;13.03;;;9.50;;
6205;SDS011;3136;48.788;9.772;2024-01-30T10:18:10;15.67;;;9.53;;
6205;SDS011;3136;48.788;9.772;2024-01-30T10:20:36;14.33;;;9.00;;
6205;SDS011;3136;48.788;9.772;2024-01-30T10:23:02;13.60;;;8.67;;
6205;SDS011;3136;48.788;9.772;2024-01-30T10:25:27;11.97;;;8.60;;
6205;SDS011;3136;48.788;9.772;2024-01-30T10:27:53;11.57;;;6.80;;
6205;SDS011;3136;48.788;9.772;2024-01-30T10:30:20;9.83;;;7.40;;
6205;SDS011;3136;48.788;9.772;2024-01-30T10:32:49;10.33;;;7.13;;
6205;SDS011;3136;48.788;9.772;2024-01-30T10:35:15;14.03;;;8.90;;
6205;SDS011;3136;48.788;9.772;2024-01-30T10:37:44;10.30;;;7.20;;
6205;SDS011;3136;48.788;9.772;2024-01-30T10:40:12;10.50;;;7.00;;
6205;SDS011;3136;48.788;9.772;2024-01-30T10:42:40;9.97;;;7.27;;
6205;SDS011;3136;48.788;9.772;2024-01-30T10:45:08;12.47;;;7.20;;
6205;SDS011;3136;48.788;9.772;2024-01-30T10:47:43;10.30;;;7.80;;
6205;SDS011;3136;48.788;9.772;2024-01-30T10:50:13;8.27;;;6.83;;
6205;SDS011;3136;48.788;9.772;2024-01-30T10:52:40;9.73;;;7.10;;
6205;SDS011;3136;48.788;9.772;2024-01-30T10:55:07;10.47;;;7.17;;
6205;SDS011;3136;48.788;9.772;2024-01-30T10:57:36;12.37;;;6.73;;
6205;SDS011;3136;48.788;9.772;2024-01-30T11:00:10;8.13;;;6.57;;
6205;SDS011;3136;48.788;9.772;2024-01-30T11:02:44;9.37;;;6.80;;
6205;SDS011;3136;48.788;9.772;2024-01-30T11:05:10;7.83;;;5.93;;
6205;SDS011;3136;48.788;9.772;2024-01-30T11:07:38;9.23;;;6.40;;
6205;SDS011;3136;48.788;9.772;2024-01-30T11:10:04;11.17;;;6.27;;
6205;SDS011;3136;48.788;9.772;2024-01-30T11:12:32;9.03;;;6.67;;
6205;SDS011;3136;48.788;9.772;2024-01-30T11:22:46;8.97;;;7.00;;
6205;SDS011;3136;48.788;9.772;2024-01-30T11:25:13;9.80;;;6.93;;
6205;SDS011;3136;48.788;9.772;2024-01-30T11:27:40;11.27;;;7.00;;
6205;SDS011;3136;48.788;9.772;2024-01-30T11:30:06;10.40;;;6.73;;
6205;SDS011;3136;48.788;9.772;2024-01-30T11:32:33;7.23;;;5.47;;
6205;SDS011;3136;48.788;9.772;2024-01-30T11:34:58;6.97;;;5.53;;
6205;SDS011;3136;48.788;9.772;2024-01-30T11:37:25;8.77;;;5.50;;
6205;SDS011;3136;48.788;9.772;2024-01-30T11:39:51;8.80;;;5.77;;
6205;SDS011;3136;48.788;9.772;2024-01-30T11:42:19;7.07;;;5.37;;
6205;SDS011;3136;48.788;9.772;2024-01-30T11:44:48;7.37;;;5.30;;
6205;SDS011;3136;48.788;9.772;2024-01-30T11:47:14;6.43;;;5.73;;
6205;SDS011;3136;48.788;9.772;2024-01-30T11:49:39;6.37;;;5.20;;
6205;SDS011;3136;48.788;9.772;2024-01-30T11:52:05;6.20;;;5.07;;
6205;SDS011;3136;48.788;9.772;2024-01-30T11:54:31;7.47;;;5.30;;
6205;SDS011;3136;48.788;9.772;2024-01-30T11:56:57;7.33;;;5.07;;
6205;SDS011;3136;48.788;9.772;2024-01-30T11:59:22;7.97;;;5.30;;
6205;SDS011;3136;48.788;9.772;2024-01-30T12:01:48;8.40;;;5.00;;
6205;SDS011;3136;48.788;9.772;2024-01-30T12:04:16;6.17;;;4.57;;
6205;SDS011;3136;48.788;9.772;2024-01-30T12:06:42;6.27;;;4.87;;
6205;SDS011;3136;48.788;9.772;2024-01-30T12:09:08;7.67;;;5.20;;
6205;SDS011;3136;48.788;9.772;2024-01-30T12:11:47;9.57;;;4.77;;
6205;SDS011;3136;48.788;9.772;2024-01-30T12:14:14;6.83;;;4.80;;
6205;SDS011;3136;48.788;9.772;2024-01-30T12:16:41;7.87;;;4.60;;
6205;SDS011;3136;48.788;9.772;2024-01-30T12:19:07;4.97;;;4.20;;
6205;SDS011;3136;48.788;9.772;2024-01-30T12:21:33;6.20;;;4.97;;
6205;SDS011;3136;48.788;9.772;2024-01-30T12:23:59;6.07;;;4.50;;
6205;SDS011;3136;48.788;9.772;2024-01-30T12:26:25;9.27;;;5.60;;
6205;SDS011;3136;48.788;9.772;2024-01-30T12:28:54;6.03;;;4.60;;
6205;SDS011;3136;48.788;9.772;2024-01-30T12:31:26;7.43;;;4.90;;
6205;SDS011;3136;48.788;9.772;2024-01-30T12:33:52;5.70;;;4.20;;
6205;SDS011;3136;48.788;9.772;2024-01-30T12:36:19;6.50;;;4.60;;
6205;SDS011;3136;48.788;9.772;2024-01-30T12:38:44;11.97;;;6.80;;
6205;SDS011;3136;48.788;9.772;2024-01-30T12:41:10;6.43;;;4.33;;
6205;SDS011;3136;48.788;9.772;2024-01-30T12:43:36;6.87;;;3.77;;
6205;SDS011;3136;48.788;9.772;2024-01-30T12:46:02;7.47;;;5.10;;
6205;SDS011;3136;48.788;9.772;2024-01-30T12:48:28;12.43;;;8.20;;
6205;SDS011;3136;48.788;9.772;2024-01-30T12:50:54;9.57;;;7.20;;
6205;SDS011;3136;48.788;9.772;2024-01-30T12:53:21;9.67;;;7.10;;
6205;SDS011;3136;48.788;9.772;2024-01-30T12:55:47;6.80;;;4.73;;
6205;SDS011;3136;48.788;9.772;2024-01-30T12:58:12;4.87;;;3.37;;
6205;SDS011;3136;48.788;9.772;2024-01-30T13:00:38;6.30;;;4.07;;
6205;SDS011;3136;48.788;9.772;2024-01-30T13:03:03;8.40;;;4.83;;
6205;SDS011;3136;48.788;9.772;2024-01-30T13:05:29;9.23;;;3.60;;
6205;SDS011;3136;48.788;9.772;2024-01-30T13:07:55;5.30;;;3.20;;
6205;SDS011;3136;48.788;9.772;2024-01-30T13:10:22;3.83;;;3.13;;
6205;SDS011;3136;48.788;9.772;2024-01-30T13:12:48;7.87;;;4.20;;
6205;SDS011;3136;48.788;9.772;2024-01-30T13:15:13;4.43;;;3.33;;
6205;SDS011;3136;48.788;9.772;2024-01-30T13:17:39;5.10;;;3.50;;
6205;SDS011;3136;48.788;9.772;2024-01-30T13:20:07;3.93;;;3.23;;
6205;SDS011;3136;48.788;9.772;2024-01-30T13:22:33;4.60;;;2.67;;
6205;SDS011;3136;48.788;9.772;2024-01-30T13:24:59;3.00;;;2.40;;
6205;SDS011;3136;48.788;9.772;2024-01-30T13:27:24;3.50;;;2.63;;
6205;SDS011;3136;48.788;9.772;2024-01-30T13:29:50;3.13;;;2.40;;
6205;SDS011;3136;48.788;9.772;2024-01-30T13:32:15;5.20;;;3.53;;
6205;SDS011;3136;48.788;9.772;2024-01-30T13:34:41;4.97;;;3.80;;
6205;SDS011;3136;48.788;9.772;2024-01-30T13:37:08;5.80;;;4.10;;
6205;SDS011;3136;48.788;9.772;2024-01-30T13:39:33;4.10;;;3.07;;
6205;SDS011;3136;48.788;9.772;2024-01-30T13:41:59;3.93;;;2.40;;
6205;SDS011;3136;48.788;9.772;2024-01-30T13:44:24;3.63;;;2.60;;
6205;SDS011;3136;48.788;9.772;2024-01-30T13:46:50;3.40;;;2.60;;
6205;SDS011;3136;48.788;9.772;2024-01-30T13:49:15;3.20;;;2.53;;
6205;SDS011;3136;48.788;9.772;2024-01-30T13:51:41;3.37;;;2.20;;
6205;SDS011;3136;48.788;9.772;2024-01-30T13:54:07;2.50;;;2.20;;
6205;SDS011;3136;48.788;9.772;2024-01-30T13:56:33;2.97;;;2.07;;
6205;SDS011;3136;48.788;9.772;2024-01-30T13:58:59;4.67;;;2.37;;
6205;SDS011;3136;48.788;9.772;2024-01-30T14:01:26;3.30;;;2.40;;
6205;SDS011;3136;48.788;9.772;2024-01-30T14:03:51;3.17;;;2.80;;
6205;SDS011;3136;48.788;9.772;2024-01-30T14:06:17;3.47;;;2.77;;
6205;SDS011;3136;48.788;9.772;2024-01-30T14:08:43;2.40;;;2.20;;
6205;SDS011;3136;48.788;9.772;2024-01-30T14:11:09;2.53;;;2.10;;
6205;SDS011;3136;48.788;9.772;2024-01-30T14:13:34;2.50;;;2.10;;
6205;SDS011;3136;48.788;9.772;2024-01-30T14:16:00;2.87;;;2.20;;
6205;SDS011;3136;48.788;9.772;2024-01-30T14:18:26;3.13;;;2.50;;
6205;SDS011;3136;48.788;9.772;2024-01-30T14:20:51;3.53;;;2.60;;
6205;SDS011;3136;48.788;9.772;2024-01-30T14:23:17;2.93;;;2.40;;
6205;SDS011;3136;48.788;9.772;2024-01-30T14:25:43;7.10;;;3.30;;
6205;SDS011;3136;48.788;9.772;2024-01-30T14:28:09;5.20;;;4.20;;
6205;SDS011;3136;48.788;9.772;2024-01-30T14:30:35;3.40;;;3.10;;
6205;SDS011;3136;48.788;9.772;2024-01-30T14:33:01;5.00;;;3.47;;
6205;SDS011;3136;48.788;9.772;2024-01-30T14:35:26;4.93;;;3.40;;
6205;SDS011;3136;48.788;9.772;2024-01-30T14:37:52;5.03;;;3.20;;
6205;SDS011;3136;48.788;9.772;2024-01-30T14:40:18;2.70;;;2.33;;
6205;SDS011;3136;48.788;9.772;2024-01-30T14:42:44;3.37;;;2.63;;
6205;SDS011;3136;48.788;9.772;2024-01-30T14:45:13;4.60;;;3.77;;
6205;SDS011;3136;48.788;9.772;2024-01-30T14:47:39;4.07;;;2.90;;
6205;SDS011;3136;48.788;9.772;2024-01-30T14:50:05;6.53;;;4.23;;
6205;SDS011;3136;48.788;9.772;2024-01-30T14:52:31;9.33;;;6.50;;
6205;SDS011;3136;48.788;9.772;2024-01-30T14:54:57;6.60;;;5.13;;
6205;SDS011;3136;48.788;9.772;2024-01-30T14:57:23;4.97;;;4.23;;